Time;durP1;ratioP1;P1;durP2;ratioP2;P2;SDS_P1;SDS_P2;PMS_P1;PMS_P2;Temp;Humidity;BMP_temperature;BMP_pressure;BME280_temperature;BME280_humidity;BME280_pressure;Samples;Min_cycle;Max_cycle;Signal;HPM_P1;HPM_P2
2022/07/12 00:00:34;;;;;;;4.80;1.77;;;;;;;15.69;100.00;102481.47;5038523;28;20025;-71
2022/07/12 00:02:59;;;;;;;3.25;1.70;;;;;;;15.70;100.00;102489.31;5037427;28;20026;-71
2022/07/12 00:05:25;;;;;;;3.28;1.80;;;;;;;15.75;100.00;102492.41;5038582;28;20038;-71
2022/07/12 00:07:50;;;;;;;2.40;1.30;;;;;;;15.78;100.00;102484.09;5039215;28;20031;-71
2022/07/12 00:10:15;;;;;;;2.42;1.20;;;;;;;15.82;100.00;102488.16;5035994;28;20068;-71
2022/07/12 00:12:41;;;;;;;4.60;1.75;;;;;;;15.87;100.00;102490.38;5042478;28;20028;-71
2022/07/12 00:15:07;;;;;;;4.32;1.60;;;;;;;15.92;100.00;102490.81;5035132;28;20064;-71
2022/07/12 00:17:32;;;;;;;3.40;2.03;;;;;;;15.96;100.00;102484.22;5037299;28;20048;-71
2022/07/12 00:19:58;;;;;;;4.88;2.53;;;;;;;15.83;100.00;102489.03;5037203;28;20029;-71
2022/07/12 00:22:24;;;;;;;3.65;2.10;;;;;;;15.59;100.00;102484.97;5035193;28;20094;-71
2022/07/12 00:24:49;;;;;;;5.68;2.63;;;;;;;15.48;100.00;102485.13;5036126;28;20029;-71
2022/07/12 00:27:15;;;;;;;3.33;1.42;;;;;;;15.20;100.00;102493.00;5042071;28;20418;-71
2022/07/12 00:29:40;;;;;;;5.28;1.65;;;;;;;14.95;100.00;102480.25;5038518;28;20037;-71
2022/07/12 00:32:07;;;;;;;7.25;1.30;;;;;;;14.75;100.00;102474.91;5034935;28;20434;-71
2022/07/12 00:34:33;;;;;;;5.80;2.42;;;;;;;14.70;100.00;102477.16;5033544;28;20112;-71
2022/07/12 00:36:58;;;;;;;2.10;1.63;;;;;;;14.72;100.00;102467.22;5035352;28;20124;-71
2022/07/12 00:39:23;;;;;;;3.75;2.22;;;;;;;14.68;100.00;102467.63;5035053;28;20037;-70
2022/07/12 00:41:49;;;;;;;3.40;1.88;;;;;;;14.62;100.00;102460.22;5036889;28;20518;-70
2022/07/12 00:44:15;;;;;;;2.88;1.58;;;;;;;14.62;100.00;102458.38;5040428;28;20508;-69
2022/07/12 00:46:40;;;;;;;4.45;1.38;;;;;;;14.74;100.00;102465.28;5041406;28;20533;-70
2022/07/12 00:49:06;;;;;;;2.65;1.52;;;;;;;14.77;100.00;102458.84;5035387;28;20052;-70
2022/07/12 00:51:32;;;;;;;2.92;1.45;;;;;;;14.88;100.00;102471.16;5036723;28;20033;-70
2022/07/12 00:53:59;;;;;;;4.05;1.58;;;;;;;14.88;100.00;102460.53;5038862;28;20037;-70
2022/07/12 00:56:25;;;;;;;2.22;1.20;;;;;;;15.02;100.00;102465.41;5040008;28;20070;-70
2022/07/12 00:58:50;;;;;;;3.13;2.03;;;;;;;15.12;100.00;102470.75;5038517;28;20229;-70
2022/07/12 01:01:16;;;;;;;2.88;1.48;;;;;;;15.22;100.00;102479.53;5034181;28;20400;-71
2022/07/12 01:03:42;;;;;;;2.63;1.38;;;;;;;15.23;100.00;102466.09;5039151;28;20494;-70
2022/07/12 01:06:08;;;;;;;1.85;1.23;;;;;;;15.26;100.00;102456.16;5021227;28;20025;-70
2022/07/12 01:08:34;;;;;;;4.15;2.08;;;;;;;15.39;100.00;102475.34;5021723;28;20057;-71
2022/07/12 01:11:00;;;;;;;3.33;1.38;;;;;;;15.32;100.00;102468.91;5038780;28;20033;-71
2022/07/12 01:13:25;;;;;;;3.10;2.17;;;;;;;15.32;100.00;102479.56;5037649;28;20025;-71
2022/07/12 01:15:52;;;;;;;3.38;1.92;;;;;;;15.23;100.00;102474.09;5037451;28;20477;-71
2022/07/12 01:18:18;;;;;;;2.78;1.80;;;;;;;15.13;100.00;102483.88;5035932;28;20039;-71
2022/07/12 01:20:44;;;;;;;2.10;1.33;;;;;;;14.86;100.00;102483.75;5037839;28;20467;-70
2022/07/12 01:23:11;;;;;;;2.15;1.23;;;;;;;14.93;100.00;102485.69;5031998;28;20184;-70
2022/07/12 01:25:37;;;;;;;1.48;1.30;;;;;;;14.86;100.00;102486.41;5032461;28;20504;-71
2022/07/12 01:28:03;;;;;;;3.20;1.67;;;;;;;14.69;100.00;102471.97;5036325;28;20025;-70
2022/07/12 01:30:28;;;;;;;3.30;2.00;;;;;;;14.78;100.00;102487.06;5022497;28;20447;-70
2022/07/12 01:32:54;;;;;;;4.00;2.35;;;;;;;14.72;100.00;102491.16;5020600;28;20429;-70
2022/07/12 01:35:21;;;;;;;2.42;1.55;;;;;;;14.70;100.00;102493.09;5033900;28;20568;-70
2022/07/12 01:37:46;;;;;;;2.85;1.45;;;;;;;14.64;100.00;102495.47;5035009;28;20025;-70
2022/07/12 01:40:14;;;;;;;2.97;1.38;;;;;;;14.35;100.00;102478.44;5036295;28;20481;-70
2022/07/12 01:42:40;;;;;;;3.65;2.08;;;;;;;14.50;100.00;102509.91;5036836;28;20424;-70
2022/07/12 01:45:08;;;;;;;3.33;1.70;;;;;;;14.33;100.00;102498.13;5041516;28;20021;-70
2022/07/12 01:47:34;;;;;;;3.63;1.98;;;;;;;14.44;100.00;102502.47;5034228;28;20020;-70
2022/07/12 01:50:00;;;;;;;2.28;1.58;;;;;;;14.38;100.00;102502.06;5037439;28;20444;-70
2022/07/12 01:52:26;;;;;;;4.35;2.05;;;;;;;14.33;100.00;102508.75;5015901;28;20116;-70
2022/07/12 01:54:53;;;;;;;3.20;2.17;;;;;;;14.42;100.00;102505.28;5036905;28;20405;-70
2022/07/12 01:57:20;;;;;;;2.63;1.45;;;;;;;14.40;100.00;102509.91;5036105;28;20049;-70
2022/07/12 01:59:45;;;;;;;4.22;2.13;;;;;;;14.52;100.00;102513.28;5040702;28;20115;-70
2022/07/12 02:02:10;;;;;;;2.78;1.20;;;;;;;14.46;100.00;102490.78;5030367;28;20422;-70
2022/07/12 02:04:36;;;;;;;1.77;1.23;;;;;;;14.58;100.00;102502.16;5039632;28;20082;-70
2022/07/12 02:07:03;;;;;;;1.95;1.23;;;;;;;14.67;100.00;102496.00;5036276;28;20025;-70
2022/07/12 02:09:28;;;;;;;4.78;1.95;;;;;;;14.55;100.00;102482.00;5040787;28;20033;-70
2022/07/12 02:11:54;;;;;;;3.08;1.73;;;;;;;14.53;100.00;102477.78;5031685;28;20430;-70
2022/07/12 02:14:20;;;;;;;2.35;1.63;;;;;;;14.56;100.00;102482.84;5038655;28;20064;-70
2022/07/12 02:16:45;;;;;;;2.78;1.50;;;;;;;14.62;100.00;102481.47;5036833;28;20028;-71
2022/07/12 02:19:12;;;;;;;3.67;1.90;;;;;;;14.58;100.00;102483.53;5037455;28;20040;-70
2022/07/12 02:21:38;;;;;;;2.92;1.70;;;;;;;14.54;100.00;102484.75;5032763;28;20029;-70
2022/07/12 02:24:04;;;;;;;3.00;1.95;;;;;;;14.53;100.00;102478.63;5030846;28;20382;-70
2022/07/12 02:26:29;;;;;;;3.63;1.55;;;;;;;14.56;100.00;102482.84;5036085;28;20029;-70
2022/07/12 02:28:55;;;;;;;3.15;1.90;;;;;;;14.63;100.00;102491.94;5037404;28;20044;-70
2022/07/12 02:31:20;;;;;;;3.03;1.65;;;;;;;14.66;100.00;102491.69;5014762;28;20044;-70
2022/07/12 02:33:46;;;;;;;3.80;1.90;;;;;;;14.56;100.00;102489.00;5038711;28;20405;-70
2022/07/12 02:36:11;;;;;;;3.40;2.13;;;;;;;14.54;100.00;102490.06;5032535;28;20076;-70
2022/07/12 02:38:37;;;;;;;2.05;1.63;;;;;;;14.40;100.00;102478.03;5037810;28;20043;-70
2022/07/12 02:41:02;;;;;;;4.72;2.03;;;;;;;14.44;100.00;102486.53;5040287;28;20040;-70
2022/07/12 02:43:31;;;;;;;1.95;1.75;;;;;;;14.38;100.00;102486.13;5039658;28;20029;-70
2022/07/12 02:46:07;;;;;;;2.95;1.75;;;;;;;14.32;100.00;102486.66;5040233;28;20041;-70
2022/07/12 02:48:33;;;;;;;2.97;2.55;;;;;;;14.32;100.00;102478.69;5037766;28;20473;-70
2022/07/12 02:51:02;;;;;;;2.42;1.58;;;;;;;14.30;100.00;102480.63;5033338;28;20043;-70
2022/07/12 02:53:28;;;;;;;3.28;2.15;;;;;;;14.19;100.00;102464.81;5037475;28;20044;-70
2022/07/12 02:55:53;;;;;;;3.75;2.03;;;;;;;14.19;100.00;102470.94;5018752;28;20125;-70
2022/07/12 02:58:19;;;;;;;3.47;2.38;;;;;;;14.17;100.00;102472.91;5036445;28;20057;-70
2022/07/12 03:00:44;;;;;;;3.80;2.13;;;;;;;13.98;100.00;102457.75;5043706;28;20071;-70
2022/07/12 03:03:10;;;;;;;4.05;2.30;;;;;;;14.14;100.00;102482.97;5044202;28;20086;-70
2022/07/12 03:05:36;;;;;;;3.45;1.90;;;;;;;14.14;100.00;102483.78;5043288;28;20025;-70
2022/07/12 03:08:03;;;;;;;3.05;1.90;;;;;;;14.22;100.00;102488.44;5043727;28;20044;-70
2022/07/12 03:10:28;;;;;;;2.83;1.50;;;;;;;14.19;100.00;102470.13;5034394;28;20053;-70
2022/07/12 03:12:54;;;;;;;3.03;1.70;;;;;;;14.23;100.00;102474.19;5047698;28;20130;-70
2022/07/12 03:15:19;;;;;;;1.92;1.30;;;;;;;14.21;100.00;102478.78;5040951;28;20040;-70
2022/07/12 03:17:45;;;;;;;3.40;1.75;;;;;;;14.14;100.00;102456.41;5041849;28;20020;-70
2022/07/12 03:20:11;;;;;;;3.40;2.72;;;;;;;14.12;100.00;102461.84;5020213;28;20039;-70
2022/07/12 03:22:48;;;;;;;2.67;1.90;;;;;;;14.23;100.00;102473.34;5023392;28;20541;-70
2022/07/12 03:25:14;;;;;;;3.08;2.30;;;;;;;14.26;100.00;102481.88;5036833;28;20030;-70
2022/07/12 03:27:40;;;;;;;2.28;2.10;;;;;;;14.16;100.00;102475.69;5037803;28;20071;-70
2022/07/12 03:30:06;;;;;;;3.22;1.92;;;;;;;14.13;100.00;102475.94;5044808;28;20067;-70
2022/07/12 03:32:32;;;;;;;1.73;1.00;;;;;;;14.15;100.00;102463.38;5041687;28;20142;-70
2022/07/12 03:34:57;;;;;;;2.05;1.85;;;;;;;14.40;100.00;102478.84;5036546;28;20336;-70
2022/07/12 03:37:22;;;;;;;3.00;2.08;;;;;;;14.30;100.00;102471.81;5034700;28;20425;-70
2022/07/12 03:39:48;;;;;;;4.18;2.10;;;;;;;14.17;100.00;102472.06;5031011;28;20345;-70
2022/07/12 03:42:13;;;;;;;1.60;1.38;;;;;;;14.03;100.00;102477.75;5032904;28;20025;-70
2022/07/12 03:44:39;;;;;;;2.80;1.75;;;;;;;14.06;100.00;102488.91;5033486;28;20036;-70
2022/07/12 03:47:05;;;;;;;1.83;1.30;;;;;;;14.17;100.00;102480.84;5030515;28;20033;-70
2022/07/12 03:49:30;;;;;;;4.65;2.17;;;;;;;14.29;100.00;102494.91;5034609;28;20037;-70
2022/07/12 03:51:55;;;;;;;5.55;2.10;;;;;;;14.33;100.00;102498.97;5032835;28;20107;-70
2022/07/12 03:54:21;;;;;;;2.15;1.55;;;;;;;14.36;100.00;102493.38;5036414;28;20022;-70
2022/07/12 03:59:31;;;;;;;3.95;1.70;;;;;;;14.33;100.00;102487.50;5045062;28;20507;-70
2022/07/12 04:01:56;;;;;;;1.95;1.42;;;;;;;14.35;100.00;102499.69;5029725;28;20048;-70
2022/07/12 04:04:21;;;;;;;2.67;2.05;;;;;;;14.36;100.00;102501.34;5031179;28;20048;-70
2022/07/12 04:06:47;;;;;;;1.55;1.15;;;;;;;14.28;100.00;102490.53;5034544;28;20029;-70
2022/07/12 04:09:13;;;;;;;2.22;1.33;;;;;;;14.34;100.00;102486.53;5032717;28;20112;-70
2022/07/12 04:11:38;;;;;;;2.95;1.45;;;;;;;14.42;100.00;102493.84;5036994;28;20028;-70
2022/07/12 04:14:03;;;;;;;4.22;1.85;;;;;;;14.35;100.00;102490.84;5035957;28;20071;-70
2022/07/12 04:16:32;;;;;;;3.20;1.40;;;;;;;14.40;100.00;102497.44;5032797;28;20603;-70
2022/07/12 04:18:57;;;;;;;3.17;2.05;;;;;;;14.40;100.00;102499.28;5038783;28;20473;-70
2022/07/12 04:21:23;;;;;;;4.07;2.13;;;;;;;14.40;100.00;102501.94;5033614;28;20142;-70
2022/07/12 04:23:48;;;;;;;3.05;1.98;;;;;;;14.39;100.00;102497.56;5037270;28;20033;-70
2022/07/12 04:26:14;;;;;;;3.13;2.60;;;;;;;14.47;100.00;102497.75;5034821;28;20584;-70
2022/07/12 04:28:39;;;;;;;3.00;1.73;;;;;;;14.46;100.00;102492.56;5031083;28;20442;-70
2022/07/12 04:31:06;;;;;;;5.10;2.47;;;;;;;14.35;100.00;102486.41;5032324;28;20440;-70
2022/07/12 04:33:31;;;;;;;3.22;1.98;;;;;;;14.42;100.00;102494.66;5032625;28;20060;-70
2022/07/12 04:35:57;;;;;;;3.70;2.40;;;;;;;14.39;100.00;102501.09;5032074;28;20052;-70
2022/07/12 04:38:22;;;;;;;3.53;1.75;;;;;;;14.47;100.00;102502.22;5034862;28;20052;-69
2022/07/12 04:40:48;;;;;;;2.97;1.42;;;;;;;14.51;100.00;102490.34;5040095;28;20029;-69
2022/07/12 04:43:13;;;;;;;2.65;1.85;;;;;;;14.51;100.00;102495.66;5030870;28;20502;-69
2022/07/12 04:45:38;;;;;;;3.25;2.22;;;;;;;14.52;100.00;102497.34;5040187;28;20056;-69
2022/07/12 04:48:04;;;;;;;2.75;1.77;;;;;;;14.52;100.00;102492.84;5037079;28;20040;-70
2022/07/12 04:50:29;;;;;;;3.67;1.95;;;;;;;14.62;100.00;102497.41;5043088;28;20041;-70
2022/07/12 04:52:55;;;;;;;3.13;2.13;;;;;;;14.68;100.00;102496.88;5041990;28;20102;-70
2022/07/12 04:55:20;;;;;;;2.72;2.15;;;;;;;14.73;100.00;102494.63;5042876;28;20044;-70
2022/07/12 04:57:45;;;;;;;3.92;2.17;;;;;;;14.67;100.00;102489.88;5042215;28;20095;-70
2022/07/12 05:00:11;;;;;;;4.07;2.13;;;;;;;14.54;100.00;102487.41;5037931;28;20025;-70
2022/07/12 05:02:36;;;;;;;3.08;2.00;;;;;;;14.39;100.00;102487.81;5031787;28;20162;-70
2022/07/12 05:05:03;;;;;;;3.58;1.88;;;;;;;14.38;100.00;102485.28;5029036;28;20021;-70
2022/07/12 05:07:28;;;;;;;5.18;1.98;;;;;;;14.38;100.00;102480.81;5033101;28;20047;-70
2022/07/12 05:09:54;;;;;;;3.10;2.10;;;;;;;14.32;100.00;102478.69;5026497;28;20034;-70
2022/07/12 05:12:19;;;;;;;3.10;1.48;;;;;;;14.54;100.00;102512.16;5011417;28;20493;-70
2022/07/12 05:14:44;;;;;;;3.53;1.98;;;;;;;14.66;100.00;102497.00;5025467;28;20033;-70
2022/07/12 05:17:10;;;;;;;2.38;1.20;;;;;;;14.76;100.00;102500.53;5022873;28;20529;-70
2022/07/12 05:19:37;;;;;;;2.20;1.83;;;;;;;15.02;100.00;102526.56;5027419;28;20378;-70
2022/07/12 05:22:03;;;;;;;4.28;2.25;;;;;;;14.79;100.00;102463.03;5029848;28;20029;-70
2022/07/12 05:24:29;;;;;;;2.65;1.73;;;;;;;14.93;100.00;102508.78;5027909;28;20044;-70
2022/07/12 05:26:54;;;;;;;5.45;1.92;;;;;;;14.92;100.00;102515.09;5033770;28;20029;-70
2022/07/12 05:29:20;;;;;;;2.40;1.83;;;;;;;14.81;100.00;102513.41;5031469;28;20115;-67
2022/07/12 05:31:45;;;;;;;2.40;1.70;;;;;;;14.71;100.00;102518.69;5035604;28;20020;-69
2022/07/12 05:34:10;;;;;;;2.85;2.03;;;;;;;14.69;100.00;102514.47;5033123;28;20037;-69
2022/07/12 05:36:36;;;;;;;4.25;1.88;;;;;;;14.48;100.00;102495.94;5034957;28;20028;-69
2022/07/12 05:39:01;;;;;;;3.05;2.00;;;;;;;14.46;100.00;102519.13;5019349;28;20028;-69
2022/07/12 05:41:26;;;;;;;3.33;2.42;;;;;;;14.40;100.00;102510.72;5033491;28;20087;-69
2022/07/12 05:43:52;;;;;;;2.83;1.98;;;;;;;14.44;100.00;102506.00;5039549;28;20492;-69
2022/07/12 05:46:17;;;;;;;2.05;1.67;;;;;;;14.41;100.00;102506.25;5035332;28;20067;-69
2022/07/12 05:48:42;;;;;;;2.83;1.42;;;;;;;14.44;100.00;102505.13;5016576;28;20325;-69
2022/07/12 05:53:52;;;;;;;3.30;2.17;;;;;;;14.56;100.00;102525.34;5022113;28;20042;-69
2022/07/12 05:56:17;;;;;;;2.70;1.70;;;;;;;14.65;100.00;102527.19;5035573;28;20057;-69
2022/07/12 05:58:43;;;;;;;4.05;2.10;;;;;;;14.56;100.00;102525.34;5035310;28;20144;-69
2022/07/12 06:01:08;;;;;;;4.85;1.63;;;;;;;14.51;100.00;102525.72;5037462;28;20464;-69
2022/07/12 06:03:33;;;;;;;3.55;1.90;;;;;;;14.63;100.00;102518.50;5032867;28;20035;-69
2022/07/12 06:05:59;;;;;;;3.17;2.30;;;;;;;14.73;100.00;102521.22;5028487;28;20038;-69
2022/07/12 06:08:25;;;;;;;2.63;1.80;;;;;;;14.94;100.00;102534.41;5031672;28;20120;-70
2022/07/12 06:10:50;;;;;;;2.10;1.48;;;;;;;15.08;100.00;102541.13;5020813;28;20025;-69
2022/07/12 06:13:15;;;;;;;3.42;2.20;;;;;;;15.04;100.00;102535.25;5035618;28;20401;-69
2022/07/12 06:15:41;;;;;;;4.05;1.85;;;;;;;15.30;100.00;102530.22;5035738;28;20029;-69
2022/07/12 06:18:06;;;;;;;4.75;2.00;;;;;;;15.34;100.00;102528.13;5032038;28;20029;-69
2022/07/12 06:20:32;;;;;;;3.03;1.83;;;;;;;15.32;100.00;102522.13;5033747;28;20440;-70
2022/07/12 06:22:57;;;;;;;4.40;2.05;;;;;;;15.39;100.00;102533.88;5035159;28;20045;-70
2022/07/12 06:25:23;;;;;;;3.08;2.05;;;;;;;15.38;100.00;102537.53;5032695;28;20402;-70
2022/07/12 06:27:49;;;;;;;3.30;1.95;;;;;;;15.42;100.00;102530.94;5034567;28;20037;-70
2022/07/12 06:30:17;;;;;;;8.82;2.08;;;;;;;15.40;100.00;102514.28;5031289;28;20033;-70
2022/07/12 06:32:46;;;;;;;3.42;2.10;;;;;;;15.60;100.00;102525.72;5036584;28;20028;-70
2022/07/12 06:35:12;;;;;;;11.55;2.53;;;;;;;15.73;100.00;102523.63;5035837;28;20471;-70
2022/07/12 06:37:38;;;;;;;4.18;2.75;;;;;;;15.57;100.00;102526.00;5039364;28;20107;-70
2022/07/12 06:40:03;;;;;;;2.42;1.52;;;;;;;15.67;100.00;102528.66;5036745;28;20112;-70
2022/07/12 06:42:29;;;;;;;4.43;2.67;;;;;;;15.86;100.00;102536.66;5039325;28;20029;-70
2022/07/12 06:44:54;;;;;;;5.03;2.85;;;;;;;15.93;100.00;102532.41;5041650;28;20468;-70
2022/07/12 06:47:20;;;;;;;3.05;1.95;;;;;;;15.74;100.00;102524.47;5036872;28;20036;-69
2022/07/12 06:49:45;;;;;;;3.53;2.47;;;;;;;15.82;100.00;102524.59;5039743;28;20394;-69
2022/07/12 06:52:11;;;;;;;3.17;2.28;;;;;;;15.90;100.00;102530.06;5047084;28;20126;-70
2022/07/12 06:54:36;;;;;;;3.00;1.75;;;;;;;16.13;100.00;102537.69;5043750;28;20025;-70
2022/07/12 06:57:02;;;;;;;3.58;2.53;;;;;;;16.22;100.00;102532.34;5043054;28;20052;-70
2022/07/12 06:59:27;;;;;;;5.30;3.08;;;;;;;16.29;100.00;102526.41;5042258;28;20044;-70
2022/07/12 07:01:55;;;;;;;3.55;2.42;;;;;;;16.68;100.00;102537.75;5035967;28;20106;-70
2022/07/12 07:04:21;;;;;;;3.63;2.08;;;;;;;17.04;100.00;102522.63;5041579;28;20027;-70
2022/07/12 07:06:46;;;;;;;4.00;2.53;;;;;;;17.25;100.00;102534.84;5022900;28;20313;-70
2022/07/12 07:09:12;;;;;;;3.03;2.50;;;;;;;17.31;100.00;102536.06;5035261;28;20034;-70
2022/07/12 07:11:37;;;;;;;3.83;2.33;;;;;;;17.63;100.00;102527.47;5036696;28;20033;-70
2022/07/12 07:14:03;;;;;;;3.90;2.58;;;;;;;17.51;100.00;102534.91;5023853;28;20052;-70
2022/07/12 07:16:29;;;;;;;2.40;2.17;;;;;;;17.96;100.00;102533.91;5035505;28;20063;-70
2022/07/12 07:18:55;;;;;;;6.95;2.53;;;;;;;18.02;99.64;102524.44;5044611;28;20029;-71
2022/07/12 07:21:20;;;;;;;3.38;2.83;;;;;;;17.99;98.54;102522.91;5041345;28;20040;-70
2022/07/12 07:23:45;;;;;;;3.58;2.25;;;;;;;17.62;98.80;102531.16;5034635;28;20043;-70
2022/07/12 07:26:11;;;;;;;3.35;2.17;;;;;;;17.72;100.00;102531.88;5045997;28;20485;-71
2022/07/12 07:30:52;;;;;;;4.30;3.22;;;;;;;17.76;100.00;102530.56;5043691;28;20565;-71
2022/07/12 07:31:22;;;;;;;4.57;2.25;;;;;;;18.04;100.00;102515.25;5042396;28;20071;-71
2022/07/12 07:33:47;;;;;;;2.67;1.83;;;;;;;18.73;97.51;102520.56;5039160;28;20485;-71
2022/07/12 07:36:12;;;;;;;2.85;1.95;;;;;;;19.40;93.77;102516.97;5042717;28;20029;-71
2022/07/12 07:38:38;;;;;;;3.80;1.77;;;;;;;19.94;89.81;102515.41;5041546;28;20028;-71
2022/07/12 07:41:04;;;;;;;3.60;2.15;;;;;;;20.62;87.67;102506.97;5025709;28;20033;-71
2022/07/12 07:43:29;;;;;;;2.72;1.60;;;;;;;20.95;84.17;102524.56;5008427;28;20045;-71
2022/07/12 07:45:54;;;;;;;3.53;2.15;;;;;;;20.57;84.96;102517.38;5033751;28;20029;-71
2022/07/12 07:48:20;;;;;;;2.78;1.70;;;;;;;21.07;85.70;102516.91;5036811;28;20029;-71
2022/07/12 07:50:45;;;;;;;5.30;1.77;;;;;;;21.98;82.67;102525.84;5044166;28;20029;-71
2022/07/12 07:53:11;;;;;;;2.60;1.75;;;;;;;22.03;79.79;102529.84;5039080;28;20022;-71
2022/07/12 07:55:36;;;;;;;2.13;1.70;;;;;;;22.30;78.56;102523.00;5036080;28;20024;-71
2022/07/12 07:58:01;;;;;;;2.65;1.73;;;;;;;22.17;79.90;102515.56;5038263;28;20063;-71
2022/07/12 08:00:28;;;;;;;3.80;2.00;;;;;;;21.96;79.87;102513.63;5019187;28;20117;-71
2022/07/12 08:02:57;;;;;;;3.70;1.77;;;;;;;22.00;79.39;102514.91;5039449;28;20108;-71
2022/07/12 08:05:23;;;;;;;2.13;1.58;;;;;;;21.34;82.41;102514.72;5041924;28;20517;-71
2022/07/12 08:07:49;;;;;;;2.53;1.67;;;;;;;21.64;83.86;102521.00;5021012;28;20032;-72
2022/07/12 08:10:14;;;;;;;2.67;1.75;;;;;;;21.57;82.33;102522.75;5035144;28;20033;-71
2022/07/12 08:12:39;;;;;;;2.15;1.30;;;;;;;22.05;81.79;102515.19;5039360;28;20036;-71
2022/07/12 08:15:06;;;;;;;2.60;1.40;;;;;;;21.63;82.95;102522.03;5022468;28;20033;-72
2022/07/12 08:17:31;;;;;;;2.72;1.80;;;;;;;22.32;82.68;102523.63;5041928;28;20089;-71
2022/07/12 08:19:57;;;;;;;4.50;1.63;;;;;;;23.07;79.23;102527.81;5036694;28;20490;-72
2022/07/12 08:22:22;;;;;;;2.10;1.20;;;;;;;23.06;77.80;102515.41;5033716;28;20071;-71
2022/07/12 08:24:47;;;;;;;2.63;0.93;;;;;;;23.37;76.98;102525.00;5018078;28;20021;-71
2022/07/12 08:27:13;;;;;;;1.85;1.42;;;;;;;22.97;78.15;102508.41;5034973;28;20405;-71
2022/07/12 08:29:38;;;;;;;3.45;1.50;;;;;;;23.20;77.82;102519.88;5033186;28;20029;-73
2022/07/12 08:32:05;;;;;;;1.65;1.33;;;;;;;23.03;77.63;102517.63;5039058;28;20032;-71
2022/07/12 08:34:30;;;;;;;3.38;1.70;;;;;;;23.18;78.50;102515.72;5038982;28;20033;-71
2022/07/12 08:36:56;;;;;;;2.85;1.70;;;;;;;22.64;77.68;102521.53;5041123;28;20028;-71
2022/07/12 08:39:21;;;;;;;3.55;1.48;;;;;;;22.34;81.12;102513.53;5038205;28;20032;-71
2022/07/12 08:41:46;;;;;;;2.33;1.50;;;;;;;22.40;80.69;102502.00;5036127;28;20074;-71
2022/07/12 08:44:12;;;;;;;2.38;1.83;;;;;;;22.15;81.77;102514.91;5033014;28;20032;-71
2022/07/12 08:46:37;;;;;;;1.95;1.02;;;;;;;22.20;82.20;102512.50;5018034;28;20112;-71
2022/07/12 08:49:09;;;;;;;2.25;1.30;;;;;;;23.07;78.47;102510.84;5038235;28;20044;-71
2022/07/12 08:51:35;;;;;;;2.97;1.98;;;;;;;23.28;76.93;102521.59;5032606;28;20112;-71
2022/07/12 08:54:16;;;;;;;3.55;1.30;;;;;;;24.09;77.15;102513.06;5032715;28;20085;-72
2022/07/12 08:56:44;;;;;;;2.50;1.48;;;;;;;23.66;75.48;102513.19;5036475;28;20049;-72
2022/07/12 08:59:10;;;;;;;2.53;1.80;;;;;;;23.55;75.51;102517.25;5034383;28;20029;-72
2022/07/12 09:01:45;;;;;;;2.55;1.80;;;;;;;23.61;77.00;102508.38;5034511;28;20017;-71
2022/07/12 09:04:22;;;;;;;1.90;1.17;;;;;;;24.17;75.58;102504.81;5043723;28;20056;-71
2022/07/12 09:06:48;;;;;;;3.05;1.48;;;;;;;23.61;75.42;102494.91;5033917;28;20021;-71
2022/07/12 09:09:27;;;;;;;3.42;1.75;;;;;;;23.65;75.23;102498.06;5035938;28;20504;-71
2022/07/12 09:11:52;;;;;;;1.52;1.13;;;;;;;24.62;75.71;102499.78;5034471;28;20025;-71
2022/07/12 09:14:19;;;;;;;1.63;0.93;;;;;;;24.61;71.92;102495.44;5040215;28;20033;-71
2022/07/12 09:16:58;;;;;;;1.88;1.30;;;;;;;24.72;72.92;102495.91;5032854;28;20031;-71
2022/07/12 09:19:24;;;;;;;1.67;1.20;;;;;;;24.02;75.04;102487.94;5040530;28;20415;-71
2022/07/12 09:21:54;;;;;;;2.25;1.40;;;;;;;24.03;73.38;102494.97;5034994;28;20079;-71
2022/07/12 09:24:23;;;;;;;2.38;1.27;;;;;;;24.34;74.62;102507.16;5034844;28;21351;-71
2022/07/12 09:26:53;;;;;;;1.80;1.13;;;;;;;24.61;71.11;102506.25;5037618;28;20447;-72
2022/07/12 09:29:20;;;;;;;2.65;1.80;;;;;;;25.08;70.59;102490.09;5033534;28;20381;-72
2022/07/12 09:37:20;;;;;;;2.92;1.30;;;;;;;25.60;67.91;102504.66;5033821;28;20394;-71
2022/07/12 09:39:46;;;;;;;1.73;1.15;;;;;;;25.28;68.56;102502.81;5033667;28;20029;-71
2022/07/12 09:42:12;;;;;;;4.70;1.15;;;;;;;25.87;69.80;102504.63;5035463;28;20264;-72
2022/07/12 09:44:39;;;;;;;1.95;1.20;;;;;;;26.06;67.21;102494.81;5032782;28;20026;-71
2022/07/12 09:47:12;;;;;;;1.90;1.05;;;;;;;26.21;68.42;102498.06;5036563;28;20036;-71
2022/07/12 09:49:38;;;;;;;1.75;1.20;;;;;;;25.33;68.56;102487.66;5036009;28;20488;-71
2022/07/12 09:52:05;;;;;;;1.92;1.15;;;;;;;25.04;69.90;102500.50;5032312;28;20025;-71
2022/07/12 09:54:35;;;;;;;1.73;1.20;;;;;;;25.44;70.08;102497.00;5030490;28;20420;-71
2022/07/12 09:57:03;;;;;;;1.60;1.00;;;;;;;25.36;71.65;102492.63;5030651;28;20045;-72
2022/07/12 09:59:29;;;;;;;1.90;1.23;;;;;;;25.96;67.73;102499.84;5020844;28;20092;-71
2022/07/12 10:02:00;;;;;;;1.42;1.08;;;;;;;26.32;68.67;102493.03;5030070;28;20030;-71
2022/07/12 10:04:30;;;;;;;3.90;1.40;;;;;;;27.07;64.65;102504.91;5036233;28;20482;-71
2022/07/12 10:06:57;;;;;;;2.03;1.25;;;;;;;26.44;64.51;102500.25;5031567;28;20026;-71
2022/07/12 10:09:23;;;;;;;1.63;1.02;;;;;;;26.96;63.78;102489.34;5038732;28;20087;-71
2022/07/12 10:11:49;;;;;;;1.70;1.13;;;;;;;26.70;64.18;102475.97;5037871;28;20034;-71
2022/07/12 10:14:15;;;;;;;1.20;0.90;;;;;;;27.68;64.88;102492.47;5029628;28;20055;-71
2022/07/12 10:16:43;;;;;;;2.13;1.10;;;;;;;28.64;62.46;102487.38;5043936;28;20033;-71
2022/07/12 10:19:28;;;;;;;1.23;0.95;;;;;;;29.37;57.66;102474.47;5040726;28;20057;-71
2022/07/12 10:21:56;;;;;;;1.98;1.00;;;;;;;28.84;60.30;102486.22;5036753;28;20285;-71
2022/07/12 10:24:31;;;;;;;1.10;0.80;;;;;;;29.23;60.52;102478.50;5040467;28;20020;-71
2022/07/12 10:27:20;;;;;;;1.25;1.00;;;;;;;28.86;59.40;102476.78;5040801;28;20029;-71
2022/07/12 10:30:12;;;;;;;1.63;0.95;;;;;;;29.03;58.71;102484.25;5039512;28;20420;-71
2022/07/12 10:32:42;;;;;;;2.72;1.20;;;;;;;28.01;60.71;102479.63;5041118;28;20033;-71
2022/07/12 10:35:13;;;;;;;1.75;1.17;;;;;;;27.73;61.69;102480.94;5040379;28;20028;-71
2022/07/12 10:37:39;;;;;;;1.33;0.70;;;;;;;27.24;61.49;102479.97;5038592;28;20127;-71
2022/07/12 10:40:15;;;;;;;1.65;0.90;;;;;;;27.09;64.70;102483.00;5036534;28;20108;-71
2022/07/12 10:43:00;;;;;;;1.30;0.90;;;;;;;27.44;61.18;102477.91;5036115;28;20374;-71
2022/07/12 10:45:42;;;;;;;0.95;0.60;;;;;;;26.62;61.79;102477.91;5038123;28;20114;-71
2022/07/12 10:48:18;;;;;;;1.13;0.70;;;;;;;26.65;61.74;102469.38;5051342;28;20112;-71
2022/07/12 10:50:44;;;;;;;1.52;0.98;;;;;;;26.74;61.79;102472.63;5044778;28;20451;-71
2022/07/12 10:53:22;;;;;;;1.42;0.77;;;;;;;26.92;61.95;102469.16;5038461;28;20120;-71
2022/07/12 10:56:09;;;;;;;1.10;0.77;;;;;;;27.65;59.86;102470.38;5037454;28;20526;-71
2022/07/12 10:58:43;;;;;;;0.90;0.50;;;;;;;28.08;61.72;102456.75;5042708;28;20106;-71
2022/07/12 11:01:13;;;;;;;3.25;0.70;;;;;;;29.04;58.80;102470.41;5039903;28;20049;-71
2022/07/12 11:03:39;;;;;;;2.60;0.95;;;;;;;29.30;55.64;102469.16;5037718;28;20031;-71
2022/07/12 11:06:06;;;;;;;2.53;1.10;;;;;;;28.70;56.66;102477.44;5038203;28;20523;-71
2022/07/12 11:08:31;;;;;;;0.90;0.60;;;;;;;28.08;59.16;102455.94;5037643;28;20031;-71
2022/07/12 11:10:57;;;;;;;1.35;0.88;;;;;;;29.16;58.58;102473.19;5040472;28;20025;-71
2022/07/12 11:13:24;;;;;;;0.70;0.50;;;;;;;29.50;56.83;102466.06;5039104;28;20037;-71
2022/07/12 11:15:57;;;;;;;1.80;0.52;;;;;;;29.26;55.86;102461.72;5025294;28;20726;-71
2022/07/12 11:18:30;;;;;;;0.80;0.40;;;;;;;29.15;58.20;102460.66;5041434;28;20029;-71
2022/07/12 11:20:59;;;;;;;0.75;0.45;;;;;;;29.77;56.90;102468.31;5036457;28;20035;-71
2022/07/12 11:23:28;;;;;;;1.38;0.73;;;;;;;30.23;56.21;102461.06;5038776;28;20037;-71
2022/07/12 11:25:58;;;;;;;1.10;0.60;;;;;;;30.52;55.93;102436.56;5039313;28;20082;-71
2022/07/12 11:28:25;;;;;;;1.90;0.50;;;;;;;30.24;53.42;102446.38;5045843;28;20373;-71